Home > Products > Valid Products > TAF

000
FTUS46 KMFR 211214 AAA
TAFLMT
TAF AMD
KLMT 211214Z 2112/2212 VRB03KT P6SM SCT250
     FM211900 27009KT P6SM FEW080 SCT140 BKN200
     FM212200 31012G22KT P6SM -SHRA VCTS SCT090CB BKN140 BKN200
     FM220100 33015G25KT P6SM FEW040 SCT060=



000
FTUS46 KMFR 211206 AAA
TAFMFR
TAF AMD
KMFR 211206Z 2112/2212 VRB03KT P6SM BKN200
     FM212100 31010G18KT P6SM FEW040
     FM220000 34012G25KT P6SM VCSH SCT035 BKN060
     FM220300 35009KT P6SM BKN025 BKN035=



000
FTUS46 KMFR 211206 AAA
TAFMFR
TAF AMD
KMFR 211206Z 2112/2212 VRB03KT P6SM BKN200
     FM212100 31010G18KT P6SM FEW040
     FM220000 34012G25KT P6SM VCSH SCT035 BKN060
     FM220300 35009KT P6SM BKN025 BKN035=



000
FTUS46 KMFR 211155 CCA
TAFOTH
TAF COR
KOTH 211155Z 2112/2212 33007KT 6SM BR SCT005 OVC016
     FM211800 35014G21KT P6SM -SHRA SCT008 BKN015 OVC040
     FM212100 35024G32KT P6SM VCSH BKN015 BKN035 OVC050
     FM220300 36015G25KT P6SM FEW020 SCT035 BKN060=



000
FTUS46 KMFR 211155 CCA
TAFOTH
TAF COR
KOTH 211155Z 2112/2212 33007KT 6SM BR SCT005 OVC016
     FM211800 35014G21KT P6SM -SHRA SCT008 BKN015 OVC040
     FM212100 35024G32KT P6SM VCSH BKN015 BKN035 OVC050
     FM220300 36015G25KT P6SM FEW020 SCT035 BKN060=



000
FTUS46 KMFR 211144
TAFOTH
TAF
KOTH 211144Z 2112/2212 33007KT 6SM BR SCT005 OVC016
     FM211600 34015G24KT P6SM -SHRA SCT008 BKN012 OVC025
     FM212100 35021G30KT P6SM -SHRA BKN035=



000
FTUS46 KMFR 211144
TAFLMT
TAF
KLMT 211144Z 2112/2212 VRB03KT P6SM SKC
     FM212200 33014G25KT P6SM VCTS SCT080CB BKN140 BKN200=



000
FTUS46 KMFR 211144
TAFMFR
TAF
KMFR 211144Z 2112/2212 VRB03KT P6SM SKC
     FM212100 31010G18KT P6SM FEW040
     FM220000 34014G23KT P6SM VCSH SCT035 BKN060=



000
FTUS46 KMFR 211144
TAFRBG
TAF
KRBG 211144Z 2112/2212 00000KT P6SM FEW010
     FM211400 35004KT P6SM OVC010
     FM211500 36008KT P6SM SCT015 BKN020
     FM212100 36012G19KT P6SM -SHRA BKN035=



000
FTUS46 KMFR 210812 AAA
TAFRBG
TAF AMD
KRBG 210812Z 2108/2206 00000KT P6SM SKC
     FM211200 35004KT P6SM OVC010
     FM211500 36008KT P6SM SCT015 BKN020
     FM212100 36012G19KT P6SM -SHRA BKN035=



000
FTUS46 KMFR 210811 AAA
TAFOTH
TAF AMD
KOTH 210811Z 2108/2206 36009KT 6SM BR OVC012
     FM211100 35008G14KT 6SM BR SCT005 OVC015
     FM211600 34015G24KT P6SM -SHRA SCT008 BKN012 OVC025
     FM212100 35021G30KT P6SM -SHRA BKN035=



000
FTUS46 KMFR 210530
TAFRBG
TAF
KRBG 210530Z 2106/2206 36003KT P6SM SKC
     FM210800 35004KT P6SM OVC010
     FM211500 36008KT P6SM SCT015 BKN020
     FM212100 36012G19KT P6SM -SHRA BKN035=



000
FTUS46 KMFR 210530
TAFOTH
TAF
KOTH 210530Z 2106/2206 36008KT 6SM BR OVC007
     FM211100 35008G12KT 6SM BR OVC005
     FM211600 34015G24KT P6SM -SHRA SCT008 BKN012 OVC025
     FM212100 35021G30KT P6SM -SHRA BKN035=



000
FTUS46 KMFR 210530
TAFMFR
TAF
KMFR 210530Z 2106/2206 VRB03KT P6SM SKC
     FM212100 31010G18KT P6SM BKN040
     FM220000 34014G23KT P6SM -SHRA BKN035=



000
FTUS46 KMFR 210530
TAFLMT
TAF
KLMT 210530Z 2106/2206 VRB03KT P6SM SKC
     FM212200 33014G25KT P6SM VCTS BKN050CB=



000
FTUS46 KMFR 210530
TAFMFR
TAF
KMFR 210530Z 2106/2206 VRB03KT P6SM SKC
     FM212100 31010G18KT P6SM BKN040
     FM220000 34014G23KT P6SM -SHRA BKN035=



000
FTUS46 KMFR 210530
TAFLMT
TAF
KLMT 210530Z 2106/2206 VRB03KT P6SM SKC
     FM212200 33014G25KT P6SM VCTS BKN050CB=



000
FTUS46 KMFR 210530
TAFOTH
TAF
KOTH 210530Z 2106/2206 36008KT 6SM BR OVC007
     FM211100 35008G12KT 6SM BR OVC005
     FM211600 34015G24KT P6SM -SHRA SCT008 BKN012 OVC025
     FM212100 35021G30KT P6SM -SHRA BKN035=



000
FTUS46 KMFR 210530
TAFRBG
TAF
KRBG 210530Z 2106/2206 36003KT P6SM SKC
     FM210800 35004KT P6SM OVC010
     FM211500 36008KT P6SM SCT015 BKN020
     FM212100 36012G19KT P6SM -SHRA BKN035=



000
FTUS46 KMFR 202320
TAFOTH
TAF
KOTH 202320Z 2100/2124 35012G20KT P6SM OVC008
     FM210300 36008KT P6SM OVC006
     FM210700 VRB03KT 3SM BR OVC004
     FM211600 VRB03KT P6SM OVC007
     FM211800 35010KT P6SM SCT009 BKN025
     FM212100 35018G30KT P6SM BKN035=



000
FTUS46 KMFR 202320
TAFMFR
TAF
KMFR 202320Z 2100/2124 32008KT P6SM SKC
     FM210300 VRB03KT P6SM SKC
     FM212200 32010KT P6SM BKN040=



000
FTUS46 KMFR 202320
TAFRBG
TAF
KRBG 202320Z 2100/2124 36008KT P6SM SKC
     FM210200 VRB03KT P6SM SKC
     FM211100 00000KT P6SM OVC010
     FM211700 VRB03KT P6SM SCT015
     FM212100 36011KT P6SM BKN035=



000
FTUS46 KMFR 202320
TAFLMT
TAF
KLMT 202320Z 2100/2124 33010KT P6SM SKC
     FM210400 VRB03KT P6SM SKC
     FM212300 33012KT P6SM VCTS BKN050CB=



000
FTUS46 KMFR 202320
TAFRBG
TAF
KRBG 202320Z 2100/2124 36008KT P6SM SKC
     FM210200 VRB03KT P6SM SKC
     FM211100 00000KT P6SM OVC010
     FM211700 VRB03KT P6SM SCT015
     FM212100 36011KT P6SM BKN035=



000
FTUS46 KMFR 202320
TAFOTH
TAF
KOTH 202320Z 2100/2124 35012G20KT P6SM OVC008
     FM210300 36008KT P6SM OVC006
     FM210700 VRB03KT 3SM BR OVC004
     FM211600 VRB03KT P6SM OVC007
     FM211800 35010KT P6SM SCT009 BKN025
     FM212100 35018G30KT P6SM BKN035=



000
FTUS46 KMFR 202320
TAFLMT
TAF
KLMT 202320Z 2100/2124 33010KT P6SM SKC
     FM210400 VRB03KT P6SM SKC
     FM212300 33012KT P6SM VCTS BKN050CB=



000
FTUS46 KMFR 202320
TAFMFR
TAF
KMFR 202320Z 2100/2124 32008KT P6SM SKC
     FM210300 VRB03KT P6SM SKC
     FM212200 32010KT P6SM BKN040=



000
FTUS46 KMFR 202159 AAA
TAFOTH
TAF AMD
KOTH 202159Z 2022/2118 35017G26KT P6SM OVC010
     FM210600 36010KT 1SM BR OVC002
     FM211600 34014G20KT P6SM BKN008=



000
FTUS46 KMFR 201738
TAFLMT
TAF
KLMT 201738Z 2018/2118 VRB03KT P6SM SKC
     FM202200 32008KT P6SM SKC
     FM210900 VRB02KT P6SM SKC=



000
FTUS46 KMFR 201738
TAFOTH
TAF
KOTH 201738Z 2018/2118 34007KT 3SM BR OVC003
     FM202000 35017G26KT 5SM BR BKN006
     FM210600 36010KT 1SM BR OVC002
     FM211600 34014G20KT P6SM BKN008=



000
FTUS46 KMFR 201738
TAFRBG
TAF
KRBG 201738Z 2018/2118 00000KT P6SM SKC
     FM202100 35007KT P6SM SKC
     FM211000 35003KT P6SM BKN015=



000
FTUS46 KMFR 201738
TAFMFR
TAF
KMFR 201738Z 2018/2118 00000KT P6SM SKC
     FM202200 32007KT P6SM SKC
     FM210900 35002KT P6SM SKC=



000
FTUS46 KMFR 201608 AAB
TAFOTH
TAF AMD
KOTH 201608Z 2016/2112 VRB03KT 1SM BR OVC002
     FM201700 01005KT 5SM BR SCT002 BKN006
     FM201900 35017G26KT P6SM SKC
     FM210200 35015G23KT 6SM BR OVC008
     FM210600 36010KT 1SM BR OVC005=



000
FTUS46 KMFR 201512 AAA
TAFOTH
TAF AMD
KOTH 201512Z 2015/2112 VRB03KT 1/4SM FG OVC002
     FM201700 01005KT 5SM BR SCT002 BKN006
     FM201900 35017G26KT P6SM SKC
     FM210200 35015G23KT 6SM BR OVC008
     FM210600 36010KT 1SM BR OVC005=



000
FTUS46 KMFR 201139
TAFLMT
TAF
KLMT 201139Z 2012/2112 VRB03KT P6SM SKC
     FM202200 32008KT P6SM SKC=



000
FTUS46 KMFR 201139
TAFRBG
TAF
KRBG 201139Z 2012/2112 00000KT P6SM SKC
     FM202100 35007KT P6SM SKC
     FM211000 35003KT P6SM BKN015=



000
FTUS46 KMFR 201139
TAFLMT
TAF
KLMT 201139Z 2012/2112 VRB03KT P6SM SKC
     FM202200 32008KT P6SM SKC=



000
FTUS46 KMFR 201139
TAFMFR
TAF
KMFR 201139Z 2012/2112 00000KT P6SM SKC
     FM202200 32007KT P6SM SKC=



000
FTUS46 KMFR 201139
TAFOTH
TAF
KOTH 201139Z 2012/2112 VRB03KT 1SM BR OVC002
     FM201600 01005KT 5SM BR SCT002 BKN006
     FM201900 35017G26KT P6SM SKC
     FM210200 35015G23KT 6SM BR OVC008
     FM210600 36010KT 1SM BR OVC005=



000
FTUS46 KMFR 201139
TAFRBG
TAF
KRBG 201139Z 2012/2112 00000KT P6SM SKC
     FM202100 35007KT P6SM SKC
     FM211000 35003KT P6SM BKN015=



000
FTUS46 KMFR 201139
TAFOTH
TAF
KOTH 201139Z 2012/2112 VRB03KT 1SM BR OVC002
     FM201600 01005KT 5SM BR SCT002 BKN006
     FM201900 35017G26KT P6SM SKC
     FM210200 35015G23KT 6SM BR OVC008
     FM210600 36010KT 1SM BR OVC005=



000
FTUS46 KMFR 201139
TAFMFR
TAF
KMFR 201139Z 2012/2112 00000KT P6SM SKC
     FM202200 32007KT P6SM SKC=



000
FTUS46 KMFR 200909 AAA
TAFOTH
TAF AMD
KOTH 200909Z 2009/2106 VRB03KT 5SM BR OVC004
     FM201200 VRB01KT 1SM BR OVC003
     FM201600 36005KT P6SM SKC
     FM201900 35017G26KT P6SM SKC
     FM210100 35015G23KT 6SM BR OVC008=



000
FTUS46 KMFR 200909 AAA
TAFOTH
TAF AMD
KOTH 200909Z 2009/2106 VRB03KT 5SM BR OVC004
     FM201200 VRB01KT 1SM BR OVC003
     FM201600 36005KT P6SM SKC
     FM201900 35017G26KT P6SM SKC
     FM210100 35015G23KT 6SM BR OVC008=



000
FTUS46 KMFR 200520
TAFOTH
TAF
KOTH 200520Z 2006/2106 36008KT P6SM SKC
     FM200900 VRB03KT 5SM BR SCT005
     FM201200 VRB01KT 1SM BR OVC003
     FM201600 36005KT P6SM SKC
     FM201900 35017G26KT P6SM SKC
     FM210100 35015G23KT 6SM BR OVC008=



000
FTUS46 KMFR 200520
TAFOTH
TAF
KOTH 200520Z 2006/2106 36008KT P6SM SKC
     FM200900 VRB03KT 5SM BR SCT005
     FM201200 VRB01KT 1SM BR OVC003
     FM201600 36005KT P6SM SKC
     FM201900 35017G26KT P6SM SKC
     FM210100 35015G23KT 6SM BR OVC008=



000
FTUS46 KMFR 200520
TAFLMT
TAF
KLMT 200520Z 2006/2106 VRB03KT P6SM SKC
     FM202200 32008KT P6SM SKC=



000
FTUS46 KMFR 200520
TAFRBG
TAF
KRBG 200520Z 2006/2106 00000KT P6SM SKC
     FM202100 35007KT P6SM SKC=



000
FTUS46 KMFR 200520
TAFMFR
TAF
KMFR 200520Z 2006/2106 00000KT P6SM SKC
     FM202200 32007KT P6SM SKC=



000
FTUS46 KMFR 200520
TAFLMT
TAF
KLMT 200520Z 2006/2106 VRB03KT P6SM SKC
     FM202200 32008KT P6SM SKC=



000
FTUS46 KMFR 200520
TAFMFR
TAF
KMFR 200520Z 2006/2106 00000KT P6SM SKC
     FM202200 32007KT P6SM SKC=



000
FTUS46 KMFR 200520
TAFRBG
TAF
KRBG 200520Z 2006/2106 00000KT P6SM SKC
     FM202100 35007KT P6SM SKC=



000
FTUS46 KMFR 192322
TAFRBG
TAF
KRBG 192322Z 2000/2024 01008KT P6SM SKC
     FM200300 02003KT P6SM SKC
     FM201200 00000KT 3SM BR SCT003
     FM201600 VRB03KT P6SM SKC=



000
FTUS46 KMFR 192322
TAFOTH
TAF
KOTH 192322Z 2000/2024 36020G28KT P6SM SKC
     FM200300 35012KT P6SM SKC
     FM200700 35008KT 5SM BR SCT015
     FM200900 VRB03KT 3SM BR OVC007
     FM201200 VRB01KT 1SM BR OVC004
     FM201600 01006KT P6SM FEW004=



000
FTUS46 KMFR 192322
TAFLMT
TAF
KLMT 192322Z 2000/2024 VRB04KT P6SM SKC=



000
FTUS46 KMFR 192322
TAFMFR
TAF
KMFR 192322Z 2000/2024 VRB04KT P6SM SKC
     FM200900 00000KT P6SM SKC
     FM202000 VRB03KT P6SM SKC=



000
FTUS46 KMFR 191810 AAA
TAFRBG
TAF AMD
KRBG 191810Z 1918/2018 00000KT P6SM SKC
     FM192100 01009G15KT P6SM SKC
     FM200400 00000KT P6SM SKC=



000
FTUS46 KMFR 191810 AAA
TAFRBG
TAF AMD
KRBG 191810Z 1918/2018 00000KT P6SM SKC
     FM192100 01009G15KT P6SM SKC
     FM200400 00000KT P6SM SKC=



000
FTUS46 KMFR 191806 AAA
TAFOTH
TAF AMD
KOTH 191806Z 1918/2018 35007KT P6SM SKC
     FM191900 36021G30KT P6SM SKC
     FM200500 36010KT P6SM SKC
     FM200900 VRB03KT 3SM BR OVC006
     FM201200 VRB02KT 1/4SM FG OVC002
     FM201600 34006KT P6SM FEW004=



000
FTUS46 KMFR 191759
TAFMFR
TAF
KMFR 191759Z 1918/2018 33005KT P6SM SKC=



000
FTUS46 KMFR 191759
TAFLMT
TAF
KLMT 191759Z 1918/2018 02004KT P6SM SKC
     FM192300 34008KT P6SM SKC
     FM200400 VRB03KT P6SM SKC=



000
FTUS46 KMFR 191759
TAFOTH
TAF
KOTH 191759Z 1918/2018 35007KT P6SM SKC
     FM191900 36021G30KT P6SM SKC
     FM200500 36010KT P6SM SKC
     FM200800 VRB03KT 3SM BR OVC006=



000
FTUS46 KMFR 191759
TAFRBG
TAF
KRBG 191759Z 1918/2018 00000KT P6SM SKC
     FM192100 01008KT P6SM SKC
     FM200400 00000KT P6SM SKC=



000
FTUS46 KMFR 191759
TAFMFR
TAF
KMFR 191759Z 1918/2018 33005KT P6SM SKC=



000
FTUS46 KMFR 191759
TAFLMT
TAF
KLMT 191759Z 1918/2018 02004KT P6SM SKC
     FM192300 34008KT P6SM SKC
     FM200400 VRB03KT P6SM SKC=



000
FTUS46 KMFR 191759
TAFRBG
TAF
KRBG 191759Z 1918/2018 00000KT P6SM SKC
     FM192100 01008KT P6SM SKC
     FM200400 00000KT P6SM SKC=



000
FTUS46 KMFR 191759
TAFOTH
TAF
KOTH 191759Z 1918/2018 35007KT P6SM SKC
     FM191900 36021G30KT P6SM SKC
     FM200500 36010KT P6SM SKC
     FM200800 VRB03KT 3SM BR OVC006=



000
FTUS46 KMFR 191619 AAC
TAFOTH
TAF AMD
KOTH 191619Z 1916/2012 35007KT P6SM SKC
     FM191900 36021G30KT P6SM SKC
     FM200500 36010KT P6SM SKC
     FM200800 VRB03KT 3SM BR OVC006=



000
FTUS46 KMFR 191355 AAB
TAFOTH
TAF AMD
KOTH 191355Z 1914/2012 VRB03KT 1/4SM FG OVC002
     FM191700 35008KT P6SM SKC
     FM191900 36021G30KT P6SM SKC
     FM200500 36010KT P6SM SKC
     FM200800 VRB03KT 3SM BR OVC006=



000
FTUS46 KMFR 191355 AAB
TAFOTH
TAF AMD
KOTH 191355Z 1914/2012 VRB03KT 1/4SM FG OVC002
     FM191700 35008KT P6SM SKC
     FM191900 36021G30KT P6SM SKC
     FM200500 36010KT P6SM SKC
     FM200800 VRB03KT 3SM BR OVC006=



000
FTUS46 KMFR 191350 AAA
TAFOTH
TAF AMD
KOTH 191350Z 1914/2012 VRB03KT 1/4SM FG OVC002
     FM191700 35008KT P6SM SKC
     FM191900 36021G30KT P6SM SKC
     FM200500 36010KT P6SM SKC=



000
FTUS46 KMFR 191350 AAA
TAFOTH
TAF AMD
KOTH 191350Z 1914/2012 VRB03KT 1/4SM FG OVC002
     FM191700 35008KT P6SM SKC
     FM191900 36021G30KT P6SM SKC
     FM200500 36010KT P6SM SKC=



000
FTUS46 KMFR 191139
TAFOTH
TAF
KOTH 191139Z 1912/2012 03003KT P6SM SKC
     FM191700 35008KT P6SM SKC
     FM191900 36021G30KT P6SM SKC
     FM200500 36010KT P6SM SKC=



000
FTUS46 KMFR 191139
TAFLMT
TAF
KLMT 191139Z 1912/2012 02004KT P6SM SKC
     FM192300 34008KT P6SM SKC
     FM200400 VRB03KT P6SM SKC=



000
FTUS46 KMFR 191139
TAFMFR
TAF
KMFR 191139Z 1912/2012 00000KT P6SM SKC
     FM191700 33005KT P6SM SKC=



000
FTUS46 KMFR 191139
TAFOTH
TAF
KOTH 191139Z 1912/2012 03003KT P6SM SKC
     FM191700 35008KT P6SM SKC
     FM191900 36021G30KT P6SM SKC
     FM200500 36010KT P6SM SKC=



000
FTUS46 KMFR 191139
TAFLMT
TAF
KLMT 191139Z 1912/2012 02004KT P6SM SKC
     FM192300 34008KT P6SM SKC
     FM200400 VRB03KT P6SM SKC=



000
FTUS46 KMFR 191139
TAFRBG
TAF
KRBG 191139Z 1912/2012 00000KT P6SM SKC
     FM192100 01008KT P6SM SKC
     FM200400 00000KT P6SM SKC=



000
FTUS46 KMFR 191001 AAA
TAFOTH
TAF AMD
KOTH 191001Z 1910/2006 02003KT 1SM BR BKN004
     FM191700 36008KT P6SM SKC
     FM191900 36021G30KT P6SM SKC
     FM200500 36010KT P6SM SKC=



000
FTUS46 KMFR 190520
TAFOTH
TAF
KOTH 190520Z 1906/2006 01005KT 6SM BR SKC
     FM191000 02003KT 5SM BR SCT003
     FM191700 36008KT P6SM SKC
     FM191900 36021G30KT P6SM SKC=



000
FTUS46 KMFR 190520
TAFOTH
TAF
KOTH 190520Z 1906/2006 01005KT 6SM BR SKC
     FM191000 02003KT 5SM BR SCT003
     FM191700 36008KT P6SM SKC
     FM191900 36021G30KT P6SM SKC=



000
FTUS46 KMFR 190520
TAFMFR
TAF
KMFR 190520Z 1906/2006 00000KT P6SM SKC
     FM191700 33005KT P6SM SKC=



000
FTUS46 KMFR 190520
TAFLMT
TAF
KLMT 190520Z 1906/2006 08008KT P6SM SKC
     FM190800 02004KT P6SM SKC
     FM191700 03009KT P6SM SKC=



000
FTUS46 KMFR 190520
TAFRBG
TAF
KRBG 190520Z 1906/2006 00000KT P6SM SKC
     FM191800 01008KT P6SM SKC
     FM200300 01003KT P6SM SKC=



000
FTUS46 KMFR 190520
TAFLMT
TAF
KLMT 190520Z 1906/2006 08008KT P6SM SKC
     FM190800 02004KT P6SM SKC
     FM191700 03009KT P6SM SKC=



000
FTUS46 KMFR 190520
TAFMFR
TAF
KMFR 190520Z 1906/2006 00000KT P6SM SKC
     FM191700 33005KT P6SM SKC=



000
FTUS46 KMFR 190520
TAFRBG
TAF
KRBG 190520Z 1906/2006 00000KT P6SM SKC
     FM191800 01008KT P6SM SKC
     FM200300 01003KT P6SM SKC=



000
FTUS46 KMFR 182327
TAFRBG
TAF
KRBG 182327Z 1900/1924 01013G19KT P6SM SKC
     FM190300 36006KT P6SM SKC
     FM190600 00000KT P6SM SKC
     FM191900 VRB03KT P6SM SKC=



000
FTUS46 KMFR 182327
TAFOTH
TAF
KOTH 182327Z 1900/1924 36025G32KT P6SM SKC
     FM190400 36017G24KT P6SM SKC
     FM190700 01008KT P6SM SKC
     FM191000 05003KT 5SM BR SCT002
     FM191900 35014G20KT P6SM SKC=



000
FTUS46 KMFR 182327
TAFMFR
TAF
KMFR 182327Z 1900/1924 35009KT P6SM SKC
     FM191000 VRB01KT P6SM SKC=



000
FTUS46 KMFR 182327
TAFLMT
TAF
KLMT 182327Z 1900/1924 04010G18KT P6SM SKC
     FM190200 01007KT P6SM SKC
     FM190600 04011KT P6SM SKC
     FM191200 36006KT P6SM SKC=



000
FTUS46 KMFR 181746 AAA
TAFLMT
TAF AMD
KLMT 181746Z 1818/1918 33007KT P6SM SKC
     FM182200 35012G20KT P6SM SKC
     FM190400 02010KT P6SM SKC
     FM191200 01003KT P6SM SKC=



000
FTUS46 KMFR 181740
TAFLMT
TAF
KLMT 181740Z 1818/1918 33007KT P6SM SKC
     FM182200 35012G20KT P6SM SKC
     FM190400 01009KT P6SM SKC=



000
FTUS46 KMFR 181740
TAFMFR
TAF
KMFR 181740Z 1818/1918 VRB03KT P6SM SKC
     FM182300 35009KT P6SM SKC
     FM190400 VRB03KT P6SM SKC=



000
FTUS46 KMFR 181740
TAFRBG
TAF
KRBG 181740Z 1818/1918 01010KT P6SM SKC
     FM182200 01013G20KT P6SM SKC
     FM190300 36004KT P6SM SKC=



000
FTUS46 KMFR 181740
TAFOTH
TAF
KOTH 181740Z 1818/1918 36011G20KT P6SM FEW250
     FM182000 36025G34KT P6SM SKC
     FM190700 02006KT P6SM SKC
     FM191700 35010G15KT P6SM SKC=



000
FTUS46 KMFR 181740
TAFMFR
TAF
KMFR 181740Z 1818/1918 VRB03KT P6SM SKC
     FM182300 35009KT P6SM SKC
     FM190400 VRB03KT P6SM SKC=



000
FTUS46 KMFR 181740
TAFRBG
TAF
KRBG 181740Z 1818/1918 01010KT P6SM SKC
     FM182200 01013G20KT P6SM SKC
     FM190300 36004KT P6SM SKC=



000
FTUS46 KMFR 181740
TAFLMT
TAF
KLMT 181740Z 1818/1918 33007KT P6SM SKC
     FM182200 35012G20KT P6SM SKC
     FM190400 01009KT P6SM SKC=



000
FTUS46 KMFR 181740
TAFOTH
TAF
KOTH 181740Z 1818/1918 36011G20KT P6SM FEW250
     FM182000 36025G34KT P6SM SKC
     FM190700 02006KT P6SM SKC
     FM191700 35010G15KT P6SM SKC=



000
FTUS46 KMFR 181554 AAC
TAFOTH
TAF AMD
KOTH 181554Z 1816/1912 03005KT P6SM FEW010 SCT250
     FM181700 36011G20KT P6SM FEW250
     FM182000 36025G34KT P6SM SKC
     FM190800 02008KT P6SM OVC015=



000
FTUS46 KMFR 181439 AAB
TAFOTH
TAF AMD
KOTH 181439Z 1815/1912 03005KT 1/2SM FG BKN003
     FM181700 36011G20KT P6SM FEW250
     FM182000 36025G34KT P6SM SKC
     FM190800 02008KT P6SM OVC015=



000
FTUS46 KMFR 181408 AAA
TAFOTH
TAF AMD
KOTH 181408Z 1814/1912 03005KT P6SM SCT250
     FM181700 36011G20KT P6SM FEW250
     FM182000 36025G34KT P6SM SKC
     FM190800 02008KT P6SM OVC015=



    US Dept of Commerce
    National Oceanic and Atmospheric Administration
    National Weather Service
    1325 East West Highway
    Silver Spring, MD 20910
    Page Author: NWS Internet Services Team
Disclaimer
Information Quality
Credits
Glossary
Privacy Policy
Freedom of Information Act (FOIA)
About Us
Career Opportunities